Time;durP1;ratioP1;P1;durP2;ratioP2;P2;SDS_P1;SDS_P2;PMS_P1;PMS_P2;Temp;Humidity;BMP_temperature;BMP_pressure;BME280_temperature;BME280_humidity;BME280_pressure;Samples;Min_cycle;Max_cycle;Signal;HPM_P1;HPM_P2
2023/08/27 00:01:01;;;;;;;;;;;;;;;22.48;nan;101193.47;5061110;28;19936;-80
2023/08/27 00:03:27;;;;;;;;;;;;;;;22.44;nan;101203.41;5062888;28;19956;-80
2023/08/27 00:05:52;;;;;;;;;;;;;;;22.39;nan;101217.19;5058033;28;20204;-80
2023/08/27 00:08:17;;;;;;;;;;;;;;;22.30;nan;101209.00;5059673;28;20346;-80
2023/08/27 00:10:43;;;;;;;;;;;;;;;22.28;nan;101203.03;5058744;28;19923;-80
2023/08/27 00:13:08;;;;;;;;;;;;;;;22.26;nan;101204.44;5060868;28;19920;-80
2023/08/27 00:15:33;;;;;;;;;;;;;;;22.21;nan;101194.50;5058582;28;19924;-80
2023/08/27 00:17:59;;;;;;;;;;;;;;;22.19;nan;101185.81;5060571;28;20610;-80
2023/08/27 00:20:24;;;;;;;;;;;;;;;22.15;nan;101194.94;5061924;28;19984;-80
2023/08/27 00:22:49;;;;;;;;;;;;;;;22.11;nan;101183.06;5060304;28;19969;-80
2023/08/27 00:25:15;;;;;;;;;;;;;;;22.07;nan;101180.13;5061063;28;19946;-80
2023/08/27 00:27:40;;;;;;;;;;;;;;;22.04;nan;101172.56;5057046;28;19917;-80
2023/08/27 00:30:05;;;;;;;;;;;;;;;21.97;nan;101174.94;5058145;28;19920;-80
2023/08/27 00:32:33;;;;;;;;;;;;;;;21.93;nan;101172.03;5060634;28;19924;-80
2023/08/27 00:34:59;;;;;;;;;;;;;;;21.91;nan;101168.81;5063141;28;19921;-80
2023/08/27 00:37:24;;;;;;;;;;;;;;;21.91;nan;101174.28;5062750;28;19921;-81
2023/08/27 00:39:49;;;;;;;;;;;;;;;21.88;nan;101163.97;5062739;28;19923;-80
2023/08/27 00:42:15;;;;;;;;;;;;;;;21.86;nan;101162.69;5067864;28;19923;-80
2023/08/27 00:44:40;;;;;;;;;;;;;;;21.82;nan;101159.78;5063604;28;20054;-81
2023/08/27 00:47:06;;;;;;;;;;;;;;;21.78;nan;101145.16;5064209;28;19920;-81
2023/08/27 00:49:32;;;;;;;;;;;;;;;21.76;nan;101150.13;5062088;28;19920;-80
2023/08/27 00:51:59;;;;;;;;;;;;;;;21.73;nan;101150.78;5060855;28;20337;-80
2023/08/27 00:54:25;;;;;;;;;;;;;;;21.72;nan;101138.22;5063226;28;19931;-80
2023/08/27 00:56:51;;;;;;;;;;;;;;;21.72;nan;101138.22;5062320;28;19916;-80
2023/08/27 00:59:17;;;;;;;;;;;;;;;21.73;nan;101142.59;5062442;28;20009;-80
2023/08/27 01:01:42;;;;;;;;;;;;;;;21.73;nan;101153.50;5064309;28;20012;-80
2023/08/27 01:04:08;;;;;;;;;;;;;;;21.71;nan;101158.44;5062160;28;19920;-80
2023/08/27 01:06:33;;;;;;;;;;;;;;;21.67;nan;101158.25;5065522;28;19927;-81
2023/08/27 01:09:30;;;;;;;;;;;;;;;21.66;nan;101158.56;5064827;28;19920;-80
2023/08/27 01:12:09;;;;;;;;;;;;;;;21.62;nan;101163.03;5061868;28;19946;-80
2023/08/27 01:14:36;;;;;;;;;;;;;;;21.59;nan;101161.75;5061695;28;19985;-80
2023/08/27 01:17:03;;;;;;;;;;;;;;;21.59;nan;101171.84;5063902;28;20388;-80
2023/08/27 01:19:28;;;;;;;;;;;;;;;21.59;nan;101171.84;5066230;28;19920;-81
2023/08/27 01:21:54;;;;;;;;;;;;;;;21.56;nan;101178.75;5054812;28;19928;-80
2023/08/27 01:24:19;;;;;;;;;;;;;;;21.55;nan;101184.50;5062827;28;19917;-80
2023/08/27 01:26:47;;;;;;;;;;;;;;;21.51;nan;101181.56;5060667;28;20000;-80
2023/08/27 01:29:15;;;;;;;;;;;;;;;21.48;nan;101168.56;5062840;28;20291;-81
2023/08/27 01:31:47;;;;;;;;;;;;;;;21.45;nan;101171.13;5065871;28;19920;-81
2023/08/27 01:34:14;;;;;;;;;;;;;;;21.42;nan;101176.06;5064575;28;19917;-80
2023/08/27 01:36:40;;;;;;;;;;;;;;;21.35;nan;101183.06;5067248;28;19944;-80
2023/08/27 01:39:06;;;;;;;;;;;;;;;21.31;nan;101191.06;5059949;28;19920;-81
2023/08/27 01:41:31;;;;;;;;;;;;;;;21.26;nan;101184.94;5054910;28;20380;-80
2023/08/27 01:43:56;;;;;;;;;;;;;;;21.24;nan;101177.06;5064679;28;20388;-81
2023/08/27 01:46:21;;;;;;;;;;;;;;;21.19;nan;101181.81;5062594;28;19936;-80
2023/08/27 01:48:47;;;;;;;;;;;;;;;21.14;nan;101196.34;5063174;28;19923;-80
2023/08/27 01:51:12;;;;;;;;;;;;;;;21.09;nan;101185.56;5063664;28;19955;-80
2023/08/27 01:53:37;;;;;;;;;;;;;;;21.08;nan;101192.13;5059464;28;20338;-80
2023/08/27 01:56:05;;;;;;;;;;;;;;;21.02;nan;101177.03;5058026;28;19924;-80
2023/08/27 01:58:30;;;;;;;;;;;;;;;20.99;nan;101175.69;5060627;28;19967;-80
2023/08/27 02:00:55;;;;;;;;;;;;;;;20.97;nan;101160.78;5059040;28;20296;-81
2023/08/27 02:03:22;;;;;;;;;;;;;;;20.97;nan;101155.31;5060583;28;19924;-81
2023/08/27 02:05:47;;;;;;;;;;;;;;;20.94;nan;101139.59;5054988;28;20007;-80
2023/08/27 02:08:13;;;;;;;;;;;;;;;20.92;nan;101141.84;5062399;28;20019;-80
2023/08/27 02:10:38;;;;;;;;;;;;;;;20.93;nan;101159.78;5064476;28;19920;-80
2023/08/27 02:13:04;;;;;;;;;;;;;;;20.93;nan;101176.13;5061637;28;20652;-80
2023/08/27 02:15:29;;;;;;;;;;;;;;;20.91;nan;101194.69;5058791;28;19928;-80
2023/08/27 02:17:54;;;;;;;;;;;;;;;20.92;nan;101188.13;5060898;28;19921;-80
2023/08/27 02:20:20;;;;;;;;;;;;;;;20.92;nan;101178.06;5056033;28;19924;-80
2023/08/27 02:22:45;;;;;;;;;;;;;;;20.91;nan;101149.19;5062986;28;20399;-80
2023/08/27 02:25:11;;;;;;;;;;;;;;;20.94;nan;101142.34;5059736;28;20285;-80
2023/08/27 02:27:36;;;;;;;;;;;;;;;20.97;nan;101163.50;5065587;28;20398;-80
2023/08/27 02:30:03;;;;;;;;;;;;;;;20.98;nan;101162.38;5062969;28;19924;-80
2023/08/27 02:32:28;;;;;;;;;;;;;;;20.93;nan;101151.63;5060558;28;20069;-80
2023/08/27 02:34:53;;;;;;;;;;;;;;;20.88;nan;101141.66;5061913;28;20442;-80
2023/08/27 02:37:18;;;;;;;;;;;;;;;20.88;nan;101135.41;5061374;28;20499;-80
2023/08/27 02:39:44;;;;;;;;;;;;;;;20.87;nan;101114.72;5056753;28;20404;-80
2023/08/27 02:42:09;;;;;;;;;;;;;;;20.88;nan;101122.59;5064426;28;19921;-80
2023/08/27 02:44:34;;;;;;;;;;;;;;;20.86;nan;101140.34;5058421;28;19917;-80
2023/08/27 02:47:00;;;;;;;;;;;;;;;20.85;nan;101142.28;5054806;28;20324;-80
2023/08/27 02:49:25;;;;;;;;;;;;;;;20.85;nan;101130.56;5059015;28;19947;-80
2023/08/27 02:51:50;;;;;;;;;;;;;;;20.85;nan;101125.13;5060994;28;19920;-80
2023/08/27 02:54:15;;;;;;;;;;;;;;;20.86;nan;101110.41;5058109;28;20270;-80
2023/08/27 02:56:41;;;;;;;;;;;;;;;20.84;nan;101097.09;5066298;28;20323;-80
2023/08/27 02:59:06;;;;;;;;;;;;;;;20.84;nan;101113.44;5062229;28;20303;-80
2023/08/27 03:01:31;;;;;;;;;;;;;;;20.86;nan;101132.19;5066080;28;19916;-80
2023/08/27 03:03:57;;;;;;;;;;;;;;;20.88;nan;101138.94;5065249;28;19916;-80
2023/08/27 03:06:22;;;;;;;;;;;;;;;20.90;nan;101149.50;5063367;28;19932;-80
2023/08/27 03:08:47;;;;;;;;;;;;;;;20.90;nan;101172.09;5059006;28;20003;-80
2023/08/27 03:11:13;;;;;;;;;;;;;;;20.91;nan;101186.53;5066045;28;19999;-80
2023/08/27 03:13:38;;;;;;;;;;;;;;;20.90;nan;101182.19;5059023;28;20377;-80
2023/08/27 03:16:03;;;;;;;;;;;;;;;20.89;nan;101175.13;5059666;28;19929;-80
2023/08/27 03:18:29;;;;;;;;;;;;;;;20.88;nan;101181.69;5056955;28;19924;-80
2023/08/27 03:20:55;;;;;;;;;;;;;;;20.87;nan;101183.63;5057748;28;19916;-80
2023/08/27 03:23:21;;;;;;;;;;;;;;;20.84;nan;101167.09;5058685;28;20139;-80
2023/08/27 03:25:48;;;;;;;;;;;;;;;20.80;nan;101154.06;5063061;28;19942;-80
2023/08/27 03:28:13;;;;;;;;;;;;;;;20.83;nan;101157.31;5058622;28;20399;-80
2023/08/27 03:30:39;;;;;;;;;;;;;;;20.83;nan;101144.50;5057773;28;19936;-80
2023/08/27 03:33:04;;;;;;;;;;;;;;;20.81;nan;101147.50;5065433;28;19924;-80
2023/08/27 03:35:30;;;;;;;;;;;;;;;20.80;nan;101162.22;5062921;28;20300;-80
2023/08/27 03:37:55;;;;;;;;;;;;;;;20.78;nan;101164.47;5059906;28;21749;-80
2023/08/27 03:40:21;;;;;;;;;;;;;;;20.78;nan;101166.38;5061336;28;19925;-80
2023/08/27 03:42:46;;;;;;;;;;;;;;;20.78;nan;101180.81;5061175;28;20276;-80
2023/08/27 03:45:11;;;;;;;;;;;;;;;20.78;nan;101197.13;5056726;28;19928;-80
2023/08/27 03:47:36;;;;;;;;;;;;;;;20.77;nan;101190.09;5062780;28;20030;-81
2023/08/27 03:50:04;;;;;;;;;;;;;;;20.75;nan;101197.75;5061043;28;19924;-80
2023/08/27 03:52:30;;;;;;;;;;;;;;;20.74;nan;101163.47;5052095;28;19924;-80
2023/08/27 03:54:55;;;;;;;;;;;;;;;20.71;nan;101150.47;5063488;28;19943;-80
2023/08/27 03:57:20;;;;;;;;;;;;;;;20.68;nan;101153.81;5056461;28;20006;-80
2023/08/27 03:59:45;;;;;;;;;;;;;;;20.66;nan;101153.31;5059941;28;20402;-80
2023/08/27 04:02:11;;;;;;;;;;;;;;;20.64;nan;101141.09;5061864;28;20400;-80
2023/08/27 04:04:37;;;;;;;;;;;;;;;20.63;nan;101143.00;5053414;28;20050;-80
2023/08/27 04:07:02;;;;;;;;;;;;;;;20.65;nan;101151.69;5054159;28;20647;-80
2023/08/27 04:09:28;;;;;;;;;;;;;;;20.64;nan;101151.97;5054944;28;20527;-80
2023/08/27 04:11:53;;;;;;;;;;;;;;;20.65;nan;101150.91;5053691;28;19924;-80
2023/08/27 04:14:18;;;;;;;;;;;;;;;20.65;nan;101146.25;5053695;28;19925;-80
2023/08/27 04:16:44;;;;;;;;;;;;;;;20.68;nan;101155.72;5053497;28;19924;-80
2023/08/27 04:19:09;;;;;;;;;;;;;;;20.67;nan;101163.09;5049906;28;19928;-80
2023/08/27 04:21:35;;;;;;;;;;;;;;;20.65;nan;101159.88;5057932;28;19921;-80
2023/08/27 04:24:00;;;;;;;;;;;;;;;20.63;nan;101140.28;5059215;28;20490;-80
2023/08/27 04:26:25;;;;;;;;;;;;;;;20.62;nan;101132.44;5059464;28;19917;-80
2023/08/27 04:28:51;;;;;;;;;;;;;;;20.62;nan;101130.50;5063888;28;19920;-80
2023/08/27 04:31:16;;;;;;;;;;;;;;;20.64;nan;101146.53;5056393;28;20311;-81
2023/08/27 04:33:42;;;;;;;;;;;;;;;20.65;nan;101148.19;5057394;28;20288;-80
2023/08/27 04:36:07;;;;;;;;;;;;;;;20.65;nan;101137.28;5061364;28;19936;-80
2023/08/27 04:38:33;;;;;;;;;;;;;;;20.67;nan;101135.88;5056933;28;19923;-80
2023/08/27 04:40:58;;;;;;;;;;;;;;;20.68;nan;101140.19;5060186;28;20003;-80
2023/08/27 04:43:23;;;;;;;;;;;;;;;20.68;nan;101140.19;5058549;28;19916;-80
2023/08/27 04:45:49;;;;;;;;;;;;;;;20.70;nan;101156.22;5056714;28;19921;-80
2023/08/27 04:48:14;;;;;;;;;;;;;;;20.73;nan;101170.03;5057169;28;20433;-80
2023/08/27 04:50:43;;;;;;;;;;;;;;;20.74;nan;101163.47;5054868;28;19917;-80
2023/08/27 04:53:08;;;;;;;;;;;;;;;20.75;nan;101153.38;5055967;28;20022;-80
2023/08/27 04:55:33;;;;;;;;;;;;;;;20.76;nan;101146.81;5058589;28;20010;-80
2023/08/27 04:57:58;;;;;;;;;;;;;;;20.81;nan;101149.41;5063546;28;19927;-80
2023/08/27 05:00:24;;;;;;;;;;;;;;;20.87;nan;101134.59;5059923;28;19931;-80
2023/08/27 05:02:49;;;;;;;;;;;;;;;20.95;nan;101141.22;5057623;28;20022;-80
2023/08/27 05:05:16;;;;;;;;;;;;;;;21.00;nan;101143.81;5058217;28;20395;-80
2023/08/27 05:07:41;;;;;;;;;;;;;;;21.05;nan;101151.88;5059202;28;19916;-81
2023/08/27 05:10:07;;;;;;;;;;;;;;;21.07;nan;101145.00;5057160;28;20151;-80
2023/08/27 05:12:32;;;;;;;;;;;;;;;21.12;nan;101144.06;5059999;28;20407;-81
2023/08/27 05:14:57;;;;;;;;;;;;;;;21.15;nan;101148.91;5057135;28;20007;-80
2023/08/27 05:17:23;;;;;;;;;;;;;;;21.22;nan;101151.22;5059554;28;19971;-80
2023/08/27 05:19:48;;;;;;;;;;;;;;;21.28;nan;101150.00;5059946;28;19924;-80
2023/08/27 05:22:14;;;;;;;;;;;;;;;21.35;nan;101161.25;5057622;28;20026;-80
2023/08/27 05:24:40;;;;;;;;;;;;;;;21.46;nan;101162.63;5061287;28;19954;-80
2023/08/27 05:27:05;;;;;;;;;;;;;;;21.54;nan;101148.22;5061747;28;19931;-81
2023/08/27 05:29:30;;;;;;;;;;;;;;;21.62;nan;101144.75;5057943;28;19925;-80
2023/08/27 05:31:56;;;;;;;;;;;;;;;21.75;nan;101137.63;5062040;28;19917;-80
2023/08/27 05:34:21;;;;;;;;;;;;;;;21.83;nan;101150.47;5066747;28;19927;-80
2023/08/27 05:36:48;;;;;;;;;;;;;;;21.89;nan;101149.22;5058648;28;20399;-80
2023/08/27 05:39:14;;;;;;;;;;;;;;;21.92;nan;101147.81;5056256;28;19921;-80
2023/08/27 05:41:39;;;;;;;;;;;;;;;21.94;nan;101154.56;5057914;28;20308;-80
2023/08/27 05:44:04;;;;;;;;;;;;;;;21.94;nan;101156.47;5054758;28;20310;-80
2023/08/27 05:46:31;;;;;;;;;;;;;;;21.93;nan;101158.41;5055006;28;20174;-80
2023/08/27 05:48:56;;;;;;;;;;;;;;;21.94;nan;101168.19;5055212;28;19923;-80
2023/08/27 05:51:21;;;;;;;;;;;;;;;21.96;nan;101165.97;5058040;28;19924;-80
2023/08/27 05:53:46;;;;;;;;;;;;;;;21.99;nan;101157.13;5051624;28;19928;-80
2023/08/27 05:56:12;;;;;;;;;;;;;;;22.05;nan;101144.19;5061344;28;19978;-80
2023/08/27 05:58:37;;;;;;;;;;;;;;;22.10;nan;101124.16;5061115;28;19924;-80
2023/08/27 06:01:02;;;;;;;;;;;;;;;22.16;nan;101107.31;5056095;28;20377;-80
2023/08/27 06:03:28;;;;;;;;;;;;;;;22.25;nan;101107.31;5059450;28;20371;-80
2023/08/27 06:05:53;;;;;;;;;;;;;;;22.37;nan;101103.97;5062773;28;19997;-80
2023/08/27 06:08:19;;;;;;;;;;;;;;;22.51;nan;101110.09;5057508;28;20412;-80
2023/08/27 06:10:44;;;;;;;;;;;;;;;22.63;nan;101109.50;5055914;28;20003;-80
2023/08/27 06:13:10;;;;;;;;;;;;;;;22.77;nan;101127.31;5061018;28;19924;-78
2023/08/27 06:15:37;;;;;;;;;;;;;;;22.94;nan;101131.19;5054102;28;19920;-78
2023/08/27 06:18:03;;;;;;;;;;;;;;;23.07;nan;101133.78;5055253;28;19923;-78
2023/08/27 06:20:33;;;;;;;;;;;;;;;23.15;nan;101141.16;5053306;28;19929;-78
2023/08/27 06:22:58;;;;;;;;;;;;;;;23.17;nan;101141.66;5058694;28;19917;-79
2023/08/27 06:25:23;;;;;;;;;;;;;;;23.20;nan;101126.53;5057063;28;20118;-80
2023/08/27 06:27:50;;;;;;;;;;;;;;;23.27;nan;101120.56;5061350;28;19930;-79
2023/08/27 06:30:15;;;;;;;;;;;;;;;23.30;nan;101114.44;5055195;28;19960;-79
2023/08/27 06:32:41;;;;;;;;;;;;;;;23.36;nan;101111.22;5060722;28;19948;-79
2023/08/27 06:35:09;;;;;;;;;;;;;;;23.41;nan;101093.84;5055611;28;19927;-79
2023/08/27 06:37:34;;;;;;;;;;;;;;;23.47;nan;101087.84;5061893;28;19947;-79
2023/08/27 06:39:59;;;;;;;;;;;;;;;23.56;nan;101089.78;5055834;28;19956;-79
2023/08/27 06:42:25;;;;;;;;;;;;;;;23.62;nan;101088.50;5061825;28;19920;-79
2023/08/27 06:44:50;;;;;;;;;;;;;;;23.72;nan;101093.63;5056834;28;20015;-79
2023/08/27 06:47:15;;;;;;;;;;;;;;;23.77;nan;101093.44;5059990;28;19917;-79
2023/08/27 06:49:41;;;;;;;;;;;;;;;23.82;nan;101098.72;5055213;28;19916;-79
2023/08/27 06:52:06;;;;;;;;;;;;;;;23.89;nan;101109.16;5060457;28;19928;-79
2023/08/27 06:54:31;;;;;;;;;;;;;;;23.95;nan;101113.31;5060651;28;19920;-79
2023/08/27 06:56:57;;;;;;;;;;;;;;;24.01;nan;101117.44;5060843;28;20015;-79
2023/08/27 06:59:22;;;;;;;;;;;;;;;24.07;nan;101124.38;5055639;28;19930;-79
2023/08/27 07:01:47;;;;;;;;;;;;;;;24.16;nan;101124.31;5056806;28;20300;-80
2023/08/27 07:04:13;;;;;;;;;;;;;;;24.25;nan;101128.63;5057412;28;19917;-80
2023/08/27 07:06:38;;;;;;;;;;;;;;;24.35;nan;101130.97;5064025;28;19921;-79
2023/08/27 07:09:07;;;;;;;;;;;;;;;24.43;nan;101126.59;5057483;28;19921;-80
2023/08/27 07:11:35;;;;;;;;;;;;;;;24.51;nan;101127.66;5057491;28;19920;-80
2023/08/27 07:14:00;;;;;;;;;;;;;;;24.52;nan;101127.31;5059602;28;20102;-80
2023/08/27 07:16:26;;;;;;;;;;;;;;;24.55;nan;101131.34;5056494;28;20376;-80
2023/08/27 07:18:52;;;;;;;;;;;;;;;24.57;nan;101137.28;5066920;28;19920;-80
2023/08/27 07:21:17;;;;;;;;;;;;;;;24.61;nan;101135.50;5058294;28;19943;-81
2023/08/27 07:23:43;;;;;;;;;;;;;;;24.63;nan;101141.44;5057397;28;19923;-80
2023/08/27 07:26:08;;;;;;;;;;;;;;;24.65;nan;101122.75;5052000;28;20301;-80
2023/08/27 07:28:34;;;;;;;;;;;;;;;24.70;nan;101122.53;5059183;28;19916;-80
2023/08/27 07:30:59;;;;;;;;;;;;;;;24.77;nan;101113.75;5059027;28;19925;-81
2023/08/27 07:33:24;;;;;;;;;;;;;;;24.88;nan;101117.72;5056717;28;19994;-80
2023/08/27 07:35:49;;;;;;;;;;;;;;;24.98;nan;101125.53;5059288;28;20503;-80
2023/08/27 07:38:15;;;;;;;;;;;;;;;25.09;nan;101123.19;5058724;28;19924;-81
2023/08/27 07:40:41;;;;;;;;;;;;;;;25.18;nan;101123.94;5055553;28;19924;-80
2023/08/27 07:43:07;;;;;;;;;;;;;;;25.25;nan;101121.44;5055379;28;19916;-80
2023/08/27 07:45:32;;;;;;;;;;;;;;;25.34;nan;101138.59;5063979;28;20087;-80
2023/08/27 07:47:58;;;;;;;;;;;;;;;25.37;nan;101137.94;5060116;28;20365;-80
2023/08/27 07:50:24;;;;;;;;;;;;;;;25.41;nan;101135.31;5060287;28;19929;-80
2023/08/27 07:52:50;;;;;;;;;;;;;;;25.43;nan;101144.78;5061278;28;19925;-80
2023/08/27 07:55:15;;;;;;;;;;;;;;;25.45;nan;101148.00;5056039;28;19920;-80
2023/08/27 07:57:41;;;;;;;;;;;;;;;25.51;nan;101148.59;5060306;28;19917;-80
2023/08/27 08:00:07;;;;;;;;;;;;;;;25.53;nan;101149.88;5062364;28;19970;-80
2023/08/27 08:02:33;;;;;;;;;;;;;;;25.61;nan;101148.94;5061284;28;19980;-80
2023/08/27 08:04:58;;;;;;;;;;;;;;;25.68;nan;101148.44;5060366;28;19920;-80
2023/08/27 08:07:24;;;;;;;;;;;;;;;25.74;nan;101149.81;5063080;28;20849;-80
2023/08/27 08:09:49;;;;;;;;;;;;;;;25.77;nan;101151.88;5060579;28;20384;-80
2023/08/27 08:12:14;;;;;;;;;;;;;;;25.82;nan;101139.88;5061647;28;19966;-80
2023/08/27 08:14:40;;;;;;;;;;;;;;;25.86;nan;101135.31;5062178;28;20416;-80
2023/08/27 08:17:05;;;;;;;;;;;;;;;25.90;nan;101130.75;5063741;28;19967;-80
2023/08/27 08:19:30;;;;;;;;;;;;;;;26.02;nan;101116.19;5063605;28;20418;-80
2023/08/27 08:21:56;;;;;;;;;;;;;;;26.13;nan;101098.13;5062132;28;19923;-80
2023/08/27 08:24:21;;;;;;;;;;;;;;;26.25;nan;101100.06;5063418;28;20011;-80
2023/08/27 08:26:49;;;;;;;;;;;;;;;26.38;nan;101107.16;5059290;28;19916;-80
2023/08/27 08:29:14;;;;;;;;;;;;;;;26.52;nan;101091.09;5059923;28;19920;-80
2023/08/27 08:31:40;;;;;;;;;;;;;;;26.61;nan;101078.03;5058365;28;19924;-80
2023/08/27 08:34:05;;;;;;;;;;;;;;;26.74;nan;101076.03;5063295;28;19917;-80
2023/08/27 08:36:30;;;;;;;;;;;;;;;26.90;nan;101087.06;5064095;28;20403;-80
2023/08/27 08:38:55;;;;;;;;;;;;;;;27.04;nan;101096.56;5064058;28;20251;-81
2023/08/27 08:41:25;;;;;;;;;;;;;;;27.17;nan;101104.75;5064018;28;19925;-80
2023/08/27 08:43:55;;;;;;;;;;;;;;;27.30;nan;101109.84;5064358;28;19916;-81
2023/08/27 08:46:23;;;;;;;;;;;;;;;27.40;nan;101116.78;5062859;28;19920;-81
2023/08/27 08:48:50;;;;;;;;;;;;;;;27.57;nan;101112.88;5056747;28;19943;-81
2023/08/27 08:51:19;;;;;;;;;;;;;;;27.79;nan;101109.53;5062255;28;19921;-82
2023/08/27 08:53:49;;;;;;;;;;;;;;;27.96;nan;101106.41;5062414;28;20012;-81
2023/08/27 08:56:18;;;;;;;;;;;;;;;28.04;nan;101104.66;5067013;28;20376;-81
2023/08/27 08:58:49;;;;;;;;;;;;;;;28.11;nan;101104.78;5061877;28;20021;-82
2023/08/27 09:01:15;;;;;;;;;;;;;;;28.14;nan;101097.78;5063016;28;20288;-82
2023/08/27 09:03:41;;;;;;;;;;;;;;;28.20;nan;101088.09;5060762;28;19920;-82
2023/08/27 09:06:06;;;;;;;;;;;;;;;28.32;nan;101068.69;5059943;28;19935;-81
2023/08/27 09:08:34;;;;;;;;;;;;;;;28.42;nan;101068.13;5067405;28;20402;-82
2023/08/27 09:10:59;;;;;;;;;;;;;;;28.51;nan;101076.97;5058151;28;20384;-82
2023/08/27 09:13:25;;;;;;;;;;;;;;;28.58;nan;101073.59;5059502;28;19924;-82
2023/08/27 09:15:50;;;;;;;;;;;;;;;28.64;nan;101065.81;5058185;28;19985;-82
2023/08/27 09:18:16;;;;;;;;;;;;;;;28.67;nan;101054.06;5064331;28;19978;-82
2023/08/27 09:20:42;;;;;;;;;;;;;;;28.69;nan;101058.03;5060851;28;19985;-81
2023/08/27 09:23:09;;;;;;;;;;;;;;;28.75;nan;101058.56;5059227;28;19928;-82
2023/08/27 09:25:35;;;;;;;;;;;;;;;28.82;nan;101044.91;5060211;28;19920;-82
2023/08/27 09:28:00;;;;;;;;;;;;;;;28.88;nan;101048.97;5065232;28;21595;-81
2023/08/27 09:30:26;;;;;;;;;;;;;;;28.94;nan;101047.53;5061600;28;20011;-82
2023/08/27 09:32:51;;;;;;;;;;;;;;;29.03;nan;101056.38;5061375;28;19917;-82
2023/08/27 09:35:17;;;;;;;;;;;;;;;29.11;nan;101051.81;5068700;28;19924;-82
2023/08/27 09:37:43;;;;;;;;;;;;;;;29.17;nan;101044.81;5057570;28;19921;-82
2023/08/27 09:40:09;;;;;;;;;;;;;;;29.28;nan;101040.28;5055998;28;20454;-82
2023/08/27 09:42:34;;;;;;;;;;;;;;;29.41;nan;101038.13;5061712;28;19999;-82
2023/08/27 09:45:00;;;;;;;;;;;;;;;29.57;nan;101038.00;5058882;28;19933;-82
2023/08/27 09:47:38;;;;;;;;;;;;;;;29.70;nan;101045.72;5057795;28;19920;-82
2023/08/27 09:50:04;;;;;;;;;;;;;;;29.81;nan;101042.34;5062015;28;19921;-82
2023/08/27 09:52:30;;;;;;;;;;;;;;;29.87;nan;101054.66;5058368;28;20296;-82
2023/08/27 10:07:12;;;;;;;;;;;;;;;29.82;nan;101041.19;5058780;28;19923;-82
2023/08/27 10:09:37;;;;;;;;;;;;;;;29.77;nan;101040.31;5057076;28;19916;-83
2023/08/27 10:12:03;;;;;;;;;;;;;;;29.78;nan;101019.81;5061286;28;19920;-82
2023/08/27 10:17:32;;;;;;;;;;;;;;;29.80;nan;101019.44;5057259;28;19931;-81
2023/08/27 10:20:00;;;;;;;;;;;;;;;29.82;nan;101025.41;5059044;28;20070;-81
2023/08/27 10:22:25;;;;;;;;;;;;;;;29.82;nan;101035.66;5063669;28;19924;-81
2023/08/27 10:24:51;;;;;;;;;;;;;;;29.76;nan;101049.75;5062421;28;19928;-81
2023/08/27 10:27:17;;;;;;;;;;;;;;;29.77;nan;101050.56;5060408;28;19917;-82
2023/08/27 10:29:43;;;;;;;;;;;;;;;29.79;nan;101054.53;5066032;28;19962;-81
2023/08/27 10:32:08;;;;;;;;;;;;;;;29.80;nan;101047.03;5060834;28;19920;-81
2023/08/27 10:34:34;;;;;;;;;;;;;;;29.86;nan;101042.03;5062320;28;19927;-82
2023/08/27 10:37:03;;;;;;;;;;;;;;;29.87;nan;101025.06;5060759;28;20421;-82
2023/08/27 10:39:29;;;;;;;;;;;;;;;29.92;nan;101024.75;5064757;28;19942;-82
2023/08/27 10:41:55;;;;;;;;;;;;;;;29.94;nan;101016.88;5059461;28;19920;-82
2023/08/27 10:44:20;;;;;;;;;;;;;;;29.95;nan;101012.16;5058817;28;19924;-82
2023/08/27 10:47:04;;;;;;;;;;;;;;;29.99;nan;101011.03;5058107;28;19921;-82
2023/08/27 10:49:34;;;;;;;;;;;;;;;30.03;nan;101013.84;5057429;28;19928;-82
2023/08/27 10:52:01;;;;;;;;;;;;;;;30.09;nan;101015.13;5063807;28;19952;-81
2023/08/27 10:54:26;;;;;;;;;;;;;;;30.17;nan;101014.09;5057995;28;19927;-82
2023/08/27 10:56:54;;;;;;;;;;;;;;;30.23;nan;101015.34;5062617;28;20295;-82
2023/08/27 10:59:27;;;;;;;;;;;;;;;30.20;nan;101018.84;5057633;28;19925;-81
2023/08/27 11:01:58;;;;;;;;;;;;;;;30.20;nan;101012.53;5059010;28;19916;-82
2023/08/27 11:04:42;;;;;;;;;;;;;;;30.22;nan;101002.69;5052719;28;20293;-81
2023/08/27 11:07:17;;;;;;;;;;;;;;;30.29;nan;101005.53;5057855;28;19924;-82
2023/08/27 11:09:49;;;;;;;;;;;;;;;30.30;nan;100981.44;5057908;28;20358;-82
2023/08/27 11:12:22;;;;;;;;;;;;;;;30.32;nan;100979.09;5061660;28;20380;-81
2023/08/27 11:14:47;;;;;;;;;;;;;;;30.38;nan;100975.66;5054812;28;19940;-82
2023/08/27 11:17:21;;;;;;;;;;;;;;;30.45;nan;100983.22;5049120;28;20388;-82
2023/08/27 11:19:46;;;;;;;;;;;;;;;30.51;nan;100991.97;5052882;28;19963;-81
2023/08/27 11:22:18;;;;;;;;;;;;;;;30.49;nan;100997.06;5047386;28;20077;-81
2023/08/27 11:24:46;;;;;;;;;;;;;;;30.55;nan;101001.13;5058530;28;19966;-81
2023/08/27 11:27:13;;;;;;;;;;;;;;;30.61;nan;100992.13;5050050;28;19971;-81
2023/08/27 11:29:41;;;;;;;;;;;;;;;30.61;nan;100983.00;5058730;28;19921;-82
2023/08/27 11:32:08;;;;;;;;;;;;;;;30.62;nan;100979.09;5054134;28;20344;-82
2023/08/27 11:34:35;;;;;;;;;;;;;;;30.64;nan;100980.31;5055195;28;19920;-82
2023/08/27 11:37:00;;;;;;;;;;;;;;;30.67;nan;100974.00;5053994;28;20236;-82
2023/08/27 11:39:27;;;;;;;;;;;;;;;30.68;nan;100969.28;5058267;28;19926;-82
2023/08/27 11:41:52;;;;;;;;;;;;;;;30.71;nan;100984.34;5061095;28;20587;-82
2023/08/27 11:44:17;;;;;;;;;;;;;;;30.74;nan;100987.13;5063716;28;19920;-82
2023/08/27 11:46:43;;;;;;;;;;;;;;;30.72;nan;100975.66;5064511;28;19921;-82
2023/08/27 11:49:12;;;;;;;;;;;;;;;30.68;nan;100972.81;5054063;28;19929;-81
2023/08/27 11:51:38;;;;;;;;;;;;;;;30.69;nan;100976.38;5059968;28;19920;-81
2023/08/27 11:54:05;;;;;;;;;;;;;;;30.68;nan;100978.34;5054153;28;19920;-82
2023/08/27 11:56:30;;;;;;;;;;;;;;;30.64;nan;100996.09;5053311;28;20092;-82
2023/08/27 11:58:55;;;;;;;;;;;;;;;30.52;nan;100986.09;5058252;28;19927;-82
2023/08/27 12:01:21;;;;;;;;;;;;;;;30.43;nan;100984.78;5068802;28;19924;-81
2023/08/27 12:03:48;;;;;;;;;;;;;;;30.40;nan;100971.72;5054424;28;19920;-82
2023/08/27 12:06:18;;;;;;;;;;;;;;;30.40;nan;100974.47;5047219;28;20711;-82
2023/08/27 12:08:48;;;;;;;;;;;;;;;30.40;nan;100974.47;5061112;28;20391;-82
2023/08/27 12:11:14;;;;;;;;;;;;;;;30.39;nan;100968.16;5058524;28;19989;-82
2023/08/27 12:13:41;;;;;;;;;;;;;;;30.38;nan;100952.75;5052367;28;20379;-81
2023/08/27 12:16:06;;;;;;;;;;;;;;;30.38;nan;100961.03;5057534;28;20503;-82
2023/08/27 12:18:35;;;;;;;;;;;;;;;30.44;nan;100953.19;5055140;28;19920;-82
2023/08/27 12:21:06;;;;;;;;;;;;;;;30.49;nan;100947.31;5060830;28;19924;-82
2023/08/27 12:23:33;;;;;;;;;;;;;;;30.51;nan;100933.91;5057344;28;19928;-82
2023/08/27 12:26:00;;;;;;;;;;;;;;;30.52;nan;100941.84;5053751;28;20015;-82
2023/08/27 12:28:26;;;;;;;;;;;;;;;30.53;nan;100942.63;5059238;28;20381;-82
2023/08/27 12:30:54;;;;;;;;;;;;;;;30.54;nan;100950.56;5057970;28;20117;-82
2023/08/27 12:33:20;;;;;;;;;;;;;;;30.49;nan;100955.59;5059957;28;19924;-82
2023/08/27 12:35:49;;;;;;;;;;;;;;;30.46;nan;100945.31;5057170;28;19960;-82
2023/08/27 12:38:15;;;;;;;;;;;;;;;30.40;nan;100949.59;5056454;28;20375;-82
2023/08/27 12:40:40;;;;;;;;;;;;;;;30.36;nan;100944.81;5060224;28;19920;-82
2023/08/27 12:43:05;;;;;;;;;;;;;;;30.34;nan;100949.13;5057731;28;19942;-82
2023/08/27 12:45:31;;;;;;;;;;;;;;;30.37;nan;100935.34;5056912;28;20011;-82
2023/08/27 12:47:56;;;;;;;;;;;;;;;30.41;nan;100929.88;5063011;28;20094;-82
2023/08/27 12:50:21;;;;;;;;;;;;;;;30.41;nan;100913.28;5053666;28;20472;-82
2023/08/27 12:52:47;;;;;;;;;;;;;;;30.41;nan;100918.00;5051671;28;19978;-82
2023/08/27 12:55:13;;;;;;;;;;;;;;;30.41;nan;100916.03;5052488;28;19971;-82
2023/08/27 12:57:41;;;;;;;;;;;;;;;30.46;nan;100923.97;5056866;28;19920;-81
2023/08/27 13:00:08;;;;;;;;;;;;;;;30.51;nan;100928.38;5058343;28;20350;-82
2023/08/27 13:02:33;;;;;;;;;;;;;;;30.52;nan;100928.03;5056018;28;20065;-82
2023/08/27 13:04:59;;;;;;;;;;;;;;;30.49;nan;100920.47;5060456;28;19916;-82
2023/08/27 13:07:25;;;;;;;;;;;;;;;30.49;nan;100923.22;5059532;28;19931;-82